Map

Track Data

SID SEASON NUMBER BASIN SUBBASIN NAME ISO_TIME NATURE LAT LON WMO_WIND WMO_PRES WMO_AGENCY TRACK_TYPE DIST2LAND LANDFALL IFLAG USA_AGENCY USA_ATCF_ID USA_LAT USA_LON USA_RECORD USA_STATUS USA_WIND USA_PRES USA_SSHS USA_R34_NE USA_R34_SE USA_R34_SW USA_R34_NW USA_R50_NE USA_R50_SE USA_R50_SW USA_R50_NW USA_R64_NE USA_R64_SE USA_R64_SW USA_R64_NW USA_POCI USA_ROCI USA_RMW USA_EYE TOKYO_LAT TOKYO_LON TOKYO_GRADE TOKYO_WIND TOKYO_PRES TOKYO_R50_DIR TOKYO_R50_LONG TOKYO_R50_SHORT TOKYO_R30_DIR TOKYO_R30_LONG TOKYO_R30_SHORT TOKYO_LAND CMA_LAT CMA_LON CMA_CAT CMA_WIND CMA_PRES HKO_LAT HKO_LON HKO_CAT HKO_WIND HKO_PRES NEWDELHI_LAT NEWDELHI_LON NEWDELHI_GRADE NEWDELHI_WIND NEWDELHI_PRES NEWDELHI_CI NEWDELHI_DP NEWDELHI_POCI REUNION_LAT REUNION_LON REUNION_TYPE REUNION_WIND REUNION_PRES REUNION_TNUM REUNION_CI REUNION_RMW REUNION_R34_NE REUNION_R34_SE REUNION_R34_SW REUNION_R34_NW REUNION_R50_NE REUNION_R50_SE REUNION_R50_SW REUNION_R50_NW REUNION_R64_NE REUNION_R64_SE REUNION_R64_SW REUNION_R64_NW BOM_LAT BOM_LON BOM_TYPE BOM_WIND BOM_PRES BOM_TNUM BOM_CI BOM_RMW BOM_R34_NE BOM_R34_SE BOM_R34_SW BOM_R34_NW BOM_R50_NE BOM_R50_SE BOM_R50_SW BOM_R50_NW BOM_R64_NE BOM_R64_SE BOM_R64_SW BOM_R64_NW BOM_ROCI BOM_POCI BOM_EYE BOM_POS_METHOD BOM_PRES_METHOD NADI_LAT NADI_LON NADI_CAT NADI_WIND NADI_PRES WELLINGTON_LAT WELLINGTON_LON WELLINGTON_WIND WELLINGTON_PRES DS824_LAT DS824_LON DS824_STAGE DS824_WIND DS824_PRES TD9636_LAT TD9636_LON TD9636_STAGE TD9636_WIND TD9636_PRES TD9635_LAT TD9635_LON TD9635_WIND TD9635_PRES TD9635_ROCI NEUMANN_LAT NEUMANN_LON NEUMANN_CLASS NEUMANN_WIND NEUMANN_PRES MLC_LAT MLC_LON MLC_CLASS MLC_WIND MLC_PRES USA_GUST BOM_GUST BOM_GUST_PER REUNION_GUST REUNION_GUST_PER USA_SEAHGT USA_SEARAD_NE USA_SEARAD_SE USA_SEARAD_SW USA_SEARAD_NW STORM_SPEED STORM_DIR
1896258N16112 1896 33 WP MM NOT_NAMED 1896-09-13 16:00:00 NR 15.6000 112.300 main 358 337 __________O___ -1 15.6000 112.300 3 6 280
1896258N16112 1896 33 WP MM NOT_NAMED 1896-09-13 18:00:00 NR 15.6336 112.099 main 337 310 __________P___ -1 15.6336 112.099 3 6 280
1896258N16112 1896 33 WP MM NOT_NAMED 1896-09-13 21:00:00 NR 15.6838 111.805 main 310 280 __________P___ -1 15.6838 111.805 3 6 280
1896258N16112 1896 33 WP MM NOT_NAMED 1896-09-14 00:00:00 NR 15.7337 111.527 main 280 265 __________P___ -1 15.7337 111.527 3 5 281
1896258N16112 1896 33 WP MM NOT_NAMED 1896-09-14 03:00:00 NR 15.7834 111.276 main 265 255 __________P___ -1 15.7834 111.276 3 5 282
1896258N16112 1896 33 WP MM NOT_NAMED 1896-09-14 04:00:00 NR 15.8000 111.200 main 255 245 __________O___ -1 15.8000 111.200 4 4 284
1896258N16112 1896 33 WP MM NOT_NAMED 1896-09-14 06:00:00 NR 15.8332 111.060 main 245 228 __________P___ -1 15.8332 111.060 4 4 285
1896258N16112 1896 33 WP MM NOT_NAMED 1896-09-14 09:00:00 NR 15.8831 110.876 main 228 208 __________P___ -1 15.8831 110.876 4 4 287
1896258N16112 1896 33 WP MM NOT_NAMED 1896-09-14 12:00:00 NR 15.9331 110.712 main 208 202 __________P___ -1 15.9331 110.712 4 3 288
1896258N16112 1896 33 WP MM NOT_NAMED 1896-09-14 15:00:00 NR 15.9833 110.553 main 202 193 __________P___ -1 15.9833 110.553 4 3 288
1896258N16112 1896 33 WP MM NOT_NAMED 1896-09-14 16:00:00 NR 16.0000 110.500 main 193 183 __________O___ -1 16.0000 110.500 4 3 287
1896258N16112 1896 33 WP MM NOT_NAMED 1896-09-14 18:00:00 NR 16.0333 110.386 main 183 171 __________P___ -1 16.0333 110.386 4 3 287
1896258N16112 1896 33 WP MM NOT_NAMED 1896-09-14 21:00:00 NR 16.0832 110.215 main 171 155 __________P___ -1 16.0832 110.215 4 3 287
1896258N16112 1896 33 WP MM NOT_NAMED 1896-09-15 00:00:00 NR 16.1332 110.041 main 155 154 __________P___ -1 16.1332 110.041 4 4 286
1896258N16112 1896 33 WP MM NOT_NAMED 1896-09-15 03:00:00 NR 16.1833 109.862 main 154 147 __________P___ -1 16.1833 109.862 4 4 286
1896258N16112 1896 33 WP MM NOT_NAMED 1896-09-15 04:00:00 NR 16.2000 109.800 main 147 139 __________O___ -1 16.2000 109.800 4 4 286
1896258N16112 1896 33 WP MM NOT_NAMED 1896-09-15 06:00:00 NR 16.2359 109.675 main 139 130 __________P___ -1 16.2359 109.675 4 4 286
1896258N16112 1896 33 WP MM NOT_NAMED 1896-09-15 09:00:00 NR 16.2899 109.481 main 130 111 __________P___ -1 16.2899 109.481 4 4 286
1896258N16112 1896 33 WP MM NOT_NAMED 1896-09-15 12:00:00 NR 16.3412 109.280 main 111 96 __________P___ -1 16.3412 109.280 4 4 284
1896258N16112 1896 33 WP MM NOT_NAMED 1896-09-15 15:00:00 NR 16.3867 109.071 main 96 87 __________P___ -1 16.3867 109.071 4 4 282
1896258N16112 1896 33 WP MM NOT_NAMED 1896-09-15 16:00:00 NR 16.4000 109.000 main 87 78 __________O___ -1 16.4000 109.000 4 4 280
1896258N16112 1896 33 WP MM NOT_NAMED 1896-09-15 18:00:00 NR 16.4235 108.855 main 78 61 __________P___ -1 16.4235 108.855 4 4 278
1896258N16112 1896 33 WP MM NOT_NAMED 1896-09-15 21:00:00 NR 16.4521 108.633 main 63 46 __________P___ -1 16.4521 108.633 4 4 277
1896258N16112 1896 33 WP MM NOT_NAMED 1896-09-16 00:00:00 NR 16.4748 108.406 main 46 35 __________P___ -1 16.4748 108.406 4 4 275
1896258N16112 1896 33 WP MM NOT_NAMED 1896-09-16 03:00:00 NR 16.4940 108.177 main 35 33 __________P___ -1 16.4940 108.177 4 4 275
1896258N16112 1896 33 WP MM NOT_NAMED 1896-09-16 04:00:00 NR 16.5000 108.100 main 33 __________O___ -1 16.5000 108.100 4 4 275

Digital Typhoon Data and Search

About IBTrACS Database

This database is a web-friendly format of International Best Track Archive for Climate Stewardship (IBTrACS), a global best track data archive curated by NOAA dating back to 1842.

Updated: 2021-10-08